sensor_id;sensor_type;location;lat;lon;timestamp;P1;durP1;ratioP1;P2;durP2;ratioP2
12772;SDS011;6450;48.576;13.460;2022-07-29T00:01:38;2.00;;;1.50;;
12772;SDS011;6450;48.576;13.460;2022-07-29T00:04:05;2.83;;;1.67;;
12772;SDS011;6450;48.576;13.460;2022-07-29T00:06:32;1.67;;;1.50;;
12772;SDS011;6450;48.576;13.460;2022-07-29T00:08:59;2.73;;;1.33;;
12772;SDS011;6450;48.576;13.460;2022-07-29T00:11:27;3.47;;;1.47;;
12772;SDS011;6450;48.576;13.460;2022-07-29T00:13:54;4.20;;;1.73;;
12772;SDS011;6450;48.576;13.460;2022-07-29T00:16:21;2.07;;;1.77;;
12772;SDS011;6450;48.576;13.460;2022-07-29T00:18:48;2.97;;;1.90;;
12772;SDS011;6450;48.576;13.460;2022-07-29T00:21:15;2.73;;;1.50;;
12772;SDS011;6450;48.576;13.460;2022-07-29T00:23:42;1.77;;;1.50;;
12772;SDS011;6450;48.576;13.460;2022-07-29T00:26:09;2.63;;;1.60;;
12772;SDS011;6450;48.576;13.460;2022-07-29T00:28:38;2.87;;;1.80;;
12772;SDS011;6450;48.576;13.460;2022-07-29T00:31:05;7.03;;;1.53;;
12772;SDS011;6450;48.576;13.460;2022-07-29T00:33:32;3.00;;;1.70;;
12772;SDS011;6450;48.576;13.460;2022-07-29T00:35:59;3.07;;;1.33;;
12772;SDS011;6450;48.576;13.460;2022-07-29T00:38:25;3.67;;;1.50;;
12772;SDS011;6450;48.576;13.460;2022-07-29T00:40:52;5.00;;;1.63;;
12772;SDS011;6450;48.576;13.460;2022-07-29T00:43:19;2.00;;;1.20;;
12772;SDS011;6450;48.576;13.460;2022-07-29T00:45:48;2.23;;;1.60;;
12772;SDS011;6450;48.576;13.460;2022-07-29T00:48:15;4.03;;;1.40;;
12772;SDS011;6450;48.576;13.460;2022-07-29T00:50:42;3.47;;;1.73;;
12772;SDS011;6450;48.576;13.460;2022-07-29T00:53:09;3.63;;;2.30;;
12772;SDS011;6450;48.576;13.460;2022-07-29T00:55:38;4.43;;;1.87;;
12772;SDS011;6450;48.576;13.460;2022-07-29T00:58:05;3.00;;;1.70;;
12772;SDS011;6450;48.576;13.460;2022-07-29T01:00:33;3.37;;;1.63;;
12772;SDS011;6450;48.576;13.460;2022-07-29T01:03:01;6.70;;;1.90;;
12772;SDS011;6450;48.576;13.460;2022-07-29T01:05:28;3.40;;;2.10;;
12772;SDS011;6450;48.576;13.460;2022-07-29T01:07:56;3.70;;;2.00;;
12772;SDS011;6450;48.576;13.460;2022-07-29T01:10:24;3.93;;;1.90;;
12772;SDS011;6450;48.576;13.460;2022-07-29T01:12:52;5.17;;;1.87;;
12772;SDS011;6450;48.576;13.460;2022-07-29T01:15:23;2.30;;;1.70;;
12772;SDS011;6450;48.576;13.460;2022-07-29T01:17:52;3.57;;;2.03;;
12772;SDS011;6450;48.576;13.460;2022-07-29T01:20:39;2.83;;;1.43;;
12772;SDS011;6450;48.576;13.460;2022-07-29T01:32:01;5.03;;;2.17;;
12772;SDS011;6450;48.576;13.460;2022-07-29T01:34:35;5.70;;;2.00;;
12772;SDS011;6450;48.576;13.460;2022-07-29T01:37:09;5.97;;;2.30;;
12772;SDS011;6450;48.576;13.460;2022-07-29T01:39:44;3.03;;;1.67;;
12772;SDS011;6450;48.576;13.460;2022-07-29T01:42:14;5.63;;;2.87;;
12772;SDS011;6450;48.576;13.460;2022-07-29T01:44:48;4.63;;;2.50;;
12772;SDS011;6450;48.576;13.460;2022-07-29T01:47:20;7.03;;;4.87;;
12772;SDS011;6450;48.576;13.460;2022-07-29T01:49:52;12.13;;;6.13;;
12772;SDS011;6450;48.576;13.460;2022-07-29T01:52:23;10.37;;;6.40;;
12772;SDS011;6450;48.576;13.460;2022-07-29T01:54:55;13.27;;;6.87;;
12772;SDS011;6450;48.576;13.460;2022-07-29T01:57:26;8.00;;;5.57;;
12772;SDS011;6450;48.576;13.460;2022-07-29T01:59:58;8.67;;;4.63;;
12772;SDS011;6450;48.576;13.460;2022-07-29T02:02:27;6.77;;;5.37;;
12772;SDS011;6450;48.576;13.460;2022-07-29T02:04:56;6.17;;;4.30;;
12772;SDS011;6450;48.576;13.460;2022-07-29T02:07:24;9.67;;;4.87;;
12772;SDS011;6450;48.576;13.460;2022-07-29T02:09:54;11.23;;;6.20;;
12772;SDS011;6450;48.576;13.460;2022-07-29T02:12:23;13.07;;;7.50;;
12772;SDS011;6450;48.576;13.460;2022-07-29T02:14:52;17.00;;;8.57;;
12772;SDS011;6450;48.576;13.460;2022-07-29T02:17:23;7.93;;;6.17;;
12772;SDS011;6450;48.576;13.460;2022-07-29T02:19:53;6.67;;;5.50;;
12772;SDS011;6450;48.576;13.460;2022-07-29T02:22:23;8.17;;;4.33;;
12772;SDS011;6450;48.576;13.460;2022-07-29T02:24:51;7.30;;;4.30;;
12772;SDS011;6450;48.576;13.460;2022-07-29T02:27:19;6.67;;;4.10;;
12772;SDS011;6450;48.576;13.460;2022-07-29T02:29:49;7.00;;;4.40;;
12772;SDS011;6450;48.576;13.460;2022-07-29T02:32:18;7.00;;;4.87;;
12772;SDS011;6450;48.576;13.460;2022-07-29T02:34:48;7.77;;;4.90;;
12772;SDS011;6450;48.576;13.460;2022-07-29T02:37:20;7.40;;;4.67;;
12772;SDS011;6450;48.576;13.460;2022-07-29T02:39:47;9.07;;;4.87;;
12772;SDS011;6450;48.576;13.460;2022-07-29T02:42:15;8.17;;;4.30;;
12772;SDS011;6450;48.576;13.460;2022-07-29T02:44:44;8.73;;;4.83;;
12772;SDS011;6450;48.576;13.460;2022-07-29T02:47:13;5.90;;;3.77;;
12772;SDS011;6450;48.576;13.460;2022-07-29T02:49:49;7.30;;;3.80;;
12772;SDS011;6450;48.576;13.460;2022-07-29T02:52:22;11.30;;;5.30;;
12772;SDS011;6450;48.576;13.460;2022-07-29T02:54:54;6.03;;;4.03;;
12772;SDS011;6450;48.576;13.460;2022-07-29T02:57:28;6.03;;;3.87;;
12772;SDS011;6450;48.576;13.460;2022-07-29T03:00:00;6.33;;;3.80;;
12772;SDS011;6450;48.576;13.460;2022-07-29T03:02:31;8.60;;;5.60;;
12772;SDS011;6450;48.576;13.460;2022-07-29T03:05:03;8.53;;;5.40;;
12772;SDS011;6450;48.576;13.460;2022-07-29T03:07:34;8.83;;;6.80;;
12772;SDS011;6450;48.576;13.460;2022-07-29T03:10:03;11.97;;;6.80;;
12772;SDS011;6450;48.576;13.460;2022-07-29T03:12:33;10.97;;;7.60;;
12772;SDS011;6450;48.576;13.460;2022-07-29T03:15:01;9.23;;;6.43;;
12772;SDS011;6450;48.576;13.460;2022-07-29T03:17:29;12.73;;;6.27;;
12772;SDS011;6450;48.576;13.460;2022-07-29T03:19:57;9.13;;;6.40;;
12772;SDS011;6450;48.576;13.460;2022-07-29T03:22:26;11.47;;;5.70;;
12772;SDS011;6450;48.576;13.460;2022-07-29T03:24:54;8.90;;;6.07;;
12772;SDS011;6450;48.576;13.460;2022-07-29T03:27:21;9.20;;;5.40;;
12772;SDS011;6450;48.576;13.460;2022-07-29T03:29:48;7.70;;;4.63;;
12772;SDS011;6450;48.576;13.460;2022-07-29T03:32:15;8.03;;;4.00;;
12772;SDS011;6450;48.576;13.460;2022-07-29T03:34:43;8.70;;;4.57;;
12772;SDS011;6450;48.576;13.460;2022-07-29T03:37:10;5.83;;;4.20;;
12772;SDS011;6450;48.576;13.460;2022-07-29T03:39:40;8.13;;;4.03;;
12772;SDS011;6450;48.576;13.460;2022-07-29T03:42:10;10.40;;;5.07;;
12772;SDS011;6450;48.576;13.460;2022-07-29T03:44:41;10.50;;;5.63;;
12772;SDS011;6450;48.576;13.460;2022-07-29T03:47:10;7.17;;;4.80;;
12772;SDS011;6450;48.576;13.460;2022-07-29T03:49:40;5.33;;;4.07;;
12772;SDS011;6450;48.576;13.460;2022-07-29T03:52:08;5.83;;;4.53;;
12772;SDS011;6450;48.576;13.460;2022-07-29T03:54:36;9.03;;;5.00;;
12772;SDS011;6450;48.576;13.460;2022-07-29T03:57:04;9.30;;;5.20;;
12772;SDS011;6450;48.576;13.460;2022-07-29T03:59:33;6.67;;;4.33;;
12772;SDS011;6450;48.576;13.460;2022-07-29T04:02:00;8.67;;;5.47;;
12772;SDS011;6450;48.576;13.460;2022-07-29T04:04:31;10.40;;;5.67;;
12772;SDS011;6450;48.576;13.460;2022-07-29T04:06:59;9.87;;;6.23;;
12772;SDS011;6450;48.576;13.460;2022-07-29T04:09:26;10.03;;;6.07;;
12772;SDS011;6450;48.576;13.460;2022-07-29T04:11:53;10.87;;;6.27;;
12772;SDS011;6450;48.576;13.460;2022-07-29T04:14:22;9.73;;;6.60;;
12772;SDS011;6450;48.576;13.460;2022-07-29T04:16:49;8.50;;;5.33;;
12772;SDS011;6450;48.576;13.460;2022-07-29T04:19:16;13.27;;;7.77;;
12772;SDS011;6450;48.576;13.460;2022-07-29T04:21:43;10.60;;;8.13;;
12772;SDS011;6450;48.576;13.460;2022-07-29T04:24:10;10.47;;;7.73;;
12772;SDS011;6450;48.576;13.460;2022-07-29T04:26:37;20.63;;;10.67;;
12772;SDS011;6450;48.576;13.460;2022-07-29T04:29:04;11.15;;;8.20;;
12772;SDS011;6450;48.576;13.460;2022-07-29T04:31:33;14.70;;;10.17;;
12772;SDS011;6450;48.576;13.460;2022-07-29T04:34:00;9.30;;;4.80;;
12772;SDS011;6450;48.576;13.460;2022-07-29T04:36:27;9.47;;;4.47;;
12772;SDS011;6450;48.576;13.460;2022-07-29T04:38:54;7.17;;;4.37;;
12772;SDS011;6450;48.576;13.460;2022-07-29T04:41:21;9.60;;;4.37;;
12772;SDS011;6450;48.576;13.460;2022-07-29T04:43:48;9.17;;;5.53;;
12772;SDS011;6450;48.576;13.460;2022-07-29T04:46:15;13.68;;;4.55;;
12772;SDS011;6450;48.576;13.460;2022-07-29T04:48:43;9.57;;;6.75;;
12772;SDS011;6450;48.576;13.460;2022-07-29T04:51:13;8.10;;;5.40;;
12772;SDS011;6450;48.576;13.460;2022-07-29T04:53:40;7.57;;;4.97;;
12772;SDS011;6450;48.576;13.460;2022-07-29T04:56:07;9.00;;;5.80;;
12772;SDS011;6450;48.576;13.460;2022-07-29T04:58:34;17.70;;;7.27;;
12772;SDS011;6450;48.576;13.460;2022-07-29T05:01:01;14.83;;;7.93;;
12772;SDS011;6450;48.576;13.460;2022-07-29T05:03:28;11.53;;;8.83;;
12772;SDS011;6450;48.576;13.460;2022-07-29T05:05:57;14.63;;;8.38;;
12772;SDS011;6450;48.576;13.460;2022-07-29T05:08:24;18.00;;;9.87;;
12772;SDS011;6450;48.576;13.460;2022-07-29T05:10:51;18.33;;;12.32;;
12772;SDS011;6450;48.576;13.460;2022-07-29T05:13:18;16.40;;;12.02;;
12772;SDS011;6450;48.576;13.460;2022-07-29T05:15:45;17.70;;;11.30;;
12772;SDS011;6450;48.576;13.460;2022-07-29T05:18:12;15.32;;;11.63;;
12772;SDS011;6450;48.576;13.460;2022-07-29T05:20:39;14.15;;;10.10;;
12772;SDS011;6450;48.576;13.460;2022-07-29T05:23:08;14.40;;;9.27;;
12772;SDS011;6450;48.576;13.460;2022-07-29T05:25:37;11.98;;;9.73;;
12772;SDS011;6450;48.576;13.460;2022-07-29T05:28:05;16.33;;;9.77;;
12772;SDS011;6450;48.576;13.460;2022-07-29T05:30:32;11.27;;;8.57;;
12772;SDS011;6450;48.576;13.460;2022-07-29T05:32:59;13.75;;;9.82;;
12772;SDS011;6450;48.576;13.460;2022-07-29T05:35:26;11.98;;;8.18;;
12772;SDS011;6450;48.576;13.460;2022-07-29T05:37:53;12.45;;;9.90;;
12772;SDS011;6450;48.576;13.460;2022-07-29T05:40:22;12.93;;;9.80;;
12772;SDS011;6450;48.576;13.460;2022-07-29T05:42:49;19.33;;;8.32;;
12772;SDS011;6450;48.576;13.460;2022-07-29T05:45:16;18.02;;;9.52;;
12772;SDS011;6450;48.576;13.460;2022-07-29T05:47:43;10.98;;;8.45;;
12772;SDS011;6450;48.576;13.460;2022-07-29T05:50:11;18.02;;;9.10;;
12772;SDS011;6450;48.576;13.460;2022-07-29T05:52:38;14.43;;;7.93;;
12772;SDS011;6450;48.576;13.460;2022-07-29T05:55:06;14.07;;;9.07;;
12772;SDS011;6450;48.576;13.460;2022-07-29T05:57:35;14.27;;;9.05;;
12772;SDS011;6450;48.576;13.460;2022-07-29T06:00:02;11.60;;;8.07;;
12772;SDS011;6450;48.576;13.460;2022-07-29T06:02:30;11.85;;;8.02;;
12772;SDS011;6450;48.576;13.460;2022-07-29T06:04:57;11.48;;;8.52;;
12772;SDS011;6450;48.576;13.460;2022-07-29T06:07:24;10.65;;;7.65;;
12772;SDS011;6450;48.576;13.460;2022-07-29T06:09:51;11.57;;;9.15;;
12772;SDS011;6450;48.576;13.460;2022-07-29T06:12:18;14.27;;;9.15;;
12772;SDS011;6450;48.576;13.460;2022-07-29T06:14:47;14.63;;;9.10;;
12772;SDS011;6450;48.576;13.460;2022-07-29T06:17:15;15.18;;;8.57;;
12772;SDS011;6450;48.576;13.460;2022-07-29T06:19:42;11.93;;;8.77;;
12772;SDS011;6450;48.576;13.460;2022-07-29T06:22:09;16.50;;;9.55;;
12772;SDS011;6450;48.576;13.460;2022-07-29T06:24:36;13.32;;;10.13;;
12772;SDS011;6450;48.576;13.460;2022-07-29T06:27:06;17.85;;;10.45;;
12772;SDS011;6450;48.576;13.460;2022-07-29T06:29:34;15.77;;;9.73;;
12772;SDS011;6450;48.576;13.460;2022-07-29T06:32:03;12.50;;;10.02;;
12772;SDS011;6450;48.576;13.460;2022-07-29T06:34:31;15.20;;;10.50;;
12772;SDS011;6450;48.576;13.460;2022-07-29T06:36:58;14.75;;;10.38;;
12772;SDS011;6450;48.576;13.460;2022-07-29T06:39:25;14.63;;;9.50;;
12772;SDS011;6450;48.576;13.460;2022-07-29T06:41:52;13.88;;;10.27;;
12772;SDS011;6450;48.576;13.460;2022-07-29T06:44:19;14.48;;;9.60;;
12772;SDS011;6450;48.576;13.460;2022-07-29T06:46:47;17.38;;;10.38;;
12772;SDS011;6450;48.576;13.460;2022-07-29T06:49:17;15.15;;;10.25;;
12772;SDS011;6450;48.576;13.460;2022-07-29T06:51:45;15.40;;;10.65;;
12772;SDS011;6450;48.576;13.460;2022-07-29T06:54:12;17.02;;;10.63;;
12772;SDS011;6450;48.576;13.460;2022-07-29T06:56:39;17.58;;;11.00;;
12772;SDS011;6450;48.576;13.460;2022-07-29T06:59:07;16.42;;;10.75;;
12772;SDS011;6450;48.576;13.460;2022-07-29T07:01:36;13.57;;;10.73;;
12772;SDS011;6450;48.576;13.460;2022-07-29T07:04:04;18.55;;;12.23;;
12772;SDS011;6450;48.576;13.460;2022-07-29T07:06:32;17.10;;;12.15;;
12772;SDS011;6450;48.576;13.460;2022-07-29T07:08:59;16.30;;;11.85;;
12772;SDS011;6450;48.576;13.460;2022-07-29T07:11:29;14.40;;;9.98;;
12772;SDS011;6450;48.576;13.460;2022-07-29T07:13:56;15.55;;;8.55;;
12772;SDS011;6450;48.576;13.460;2022-07-29T07:16:23;12.32;;;7.95;;
12772;SDS011;6450;48.576;13.460;2022-07-29T07:18:50;14.25;;;8.88;;
12772;SDS011;6450;48.576;13.460;2022-07-29T07:21:17;15.57;;;8.63;;
12772;SDS011;6450;48.576;13.460;2022-07-29T07:23:46;11.85;;;7.97;;
12772;SDS011;6450;48.576;13.460;2022-07-29T07:26:13;15.05;;;8.80;;
12772;SDS011;6450;48.576;13.460;2022-07-29T07:28:40;15.63;;;9.73;;
12772;SDS011;6450;48.576;13.460;2022-07-29T07:31:07;14.95;;;9.05;;
12772;SDS011;6450;48.576;13.460;2022-07-29T07:33:34;13.02;;;8.65;;
12772;SDS011;6450;48.576;13.460;2022-07-29T07:36:01;19.60;;;9.57;;
12772;SDS011;6450;48.576;13.460;2022-07-29T07:38:29;14.75;;;9.38;;
12772;SDS011;6450;48.576;13.460;2022-07-29T07:40:57;12.32;;;8.90;;
12772;SDS011;6450;48.576;13.460;2022-07-29T07:43:24;16.40;;;9.88;;
12772;SDS011;6450;48.576;13.460;2022-07-29T07:45:51;18.88;;;9.90;;
12772;SDS011;6450;48.576;13.460;2022-07-29T07:48:19;13.52;;;8.63;;
12772;SDS011;6450;48.576;13.460;2022-07-29T07:50:46;14.50;;;9.00;;
12772;SDS011;6450;48.576;13.460;2022-07-29T07:53:14;15.50;;;9.10;;
12772;SDS011;6450;48.576;13.460;2022-07-29T07:55:41;12.63;;;9.35;;
12772;SDS011;6450;48.576;13.460;2022-07-29T07:58:11;15.05;;;9.13;;
12772;SDS011;6450;48.576;13.460;2022-07-29T08:00:38;12.23;;;8.45;;
12772;SDS011;6450;48.576;13.460;2022-07-29T08:03:11;14.52;;;8.85;;
12772;SDS011;6450;48.576;13.460;2022-07-29T08:05:39;15.82;;;8.38;;
12772;SDS011;6450;48.576;13.460;2022-07-29T08:08:06;13.98;;;7.97;;
12772;SDS011;6450;48.576;13.460;2022-07-29T08:10:35;13.52;;;8.38;;
12772;SDS011;6450;48.576;13.460;2022-07-29T08:13:23;13.82;;;8.55;;
12772;SDS011;6450;48.576;13.460;2022-07-29T08:15:53;19.80;;;7.68;;
12772;SDS011;6450;48.576;13.460;2022-07-29T08:18:25;13.77;;;7.60;;
12772;SDS011;6450;48.576;13.460;2022-07-29T08:20:53;15.93;;;7.65;;
12772;SDS011;6450;48.576;13.460;2022-07-29T08:23:20;11.13;;;7.45;;
12772;SDS011;6450;48.576;13.460;2022-07-29T08:25:48;11.23;;;7.70;;
12772;SDS011;6450;48.576;13.460;2022-07-29T08:28:15;11.35;;;7.65;;
12772;SDS011;6450;48.576;13.460;2022-07-29T08:30:43;15.38;;;8.35;;
12772;SDS011;6450;48.576;13.460;2022-07-29T08:33:11;11.65;;;7.97;;
12772;SDS011;6450;48.576;13.460;2022-07-29T08:35:38;14.10;;;7.65;;
12772;SDS011;6450;48.576;13.460;2022-07-29T08:38:05;12.07;;;7.75;;
12772;SDS011;6450;48.576;13.460;2022-07-29T08:40:32;13.27;;;7.53;;
12772;SDS011;6450;48.576;13.460;2022-07-29T08:42:59;15.55;;;8.48;;
12772;SDS011;6450;48.576;13.460;2022-07-29T08:45:31;14.25;;;7.95;;
12772;SDS011;6450;48.576;13.460;2022-07-29T08:48:08;13.23;;;8.25;;
12772;SDS011;6450;48.576;13.460;2022-07-29T08:50:35;13.63;;;7.85;;
12772;SDS011;6450;48.576;13.460;2022-07-29T08:53:04;14.88;;;7.68;;
12772;SDS011;6450;48.576;13.460;2022-07-29T08:55:33;11.85;;;8.35;;
12772;SDS011;6450;48.576;13.460;2022-07-29T08:58:00;11.32;;;8.20;;
12772;SDS011;6450;48.576;13.460;2022-07-29T09:00:28;13.23;;;8.00;;
12772;SDS011;6450;48.576;13.460;2022-07-29T09:02:56;15.73;;;7.85;;
12772;SDS011;6450;48.576;13.460;2022-07-29T09:05:25;11.75;;;7.72;;
12772;SDS011;6450;48.576;13.460;2022-07-29T09:07:53;12.93;;;8.43;;
12772;SDS011;6450;48.576;13.460;2022-07-29T09:10:21;12.93;;;8.05;;
12772;SDS011;6450;48.576;13.460;2022-07-29T09:12:48;13.98;;;7.90;;
12772;SDS011;6450;48.576;13.460;2022-07-29T09:15:15;11.93;;;7.72;;
12772;SDS011;6450;48.576;13.460;2022-07-29T09:17:44;14.90;;;8.05;;
12772;SDS011;6450;48.576;13.460;2022-07-29T09:20:13;12.32;;;7.72;;
12772;SDS011;6450;48.576;13.460;2022-07-29T09:22:42;14.40;;;7.82;;
12772;SDS011;6450;48.576;13.460;2022-07-29T09:25:12;8.85;;;7.03;;
12772;SDS011;6450;48.576;13.460;2022-07-29T09:27:39;10.73;;;7.60;;
12772;SDS011;6450;48.576;13.460;2022-07-29T09:30:07;13.30;;;7.25;;
12772;SDS011;6450;48.576;13.460;2022-07-29T09:32:53;10.60;;;7.78;;
12772;SDS011;6450;48.576;13.460;2022-07-29T09:35:22;16.60;;;7.78;;
12772;SDS011;6450;48.576;13.460;2022-07-29T09:37:52;13.30;;;7.55;;
12772;SDS011;6450;48.576;13.460;2022-07-29T09:40:20;8.10;;;7.30;;
12772;SDS011;6450;48.576;13.460;2022-07-29T09:42:48;12.25;;;7.60;;
12772;SDS011;6450;48.576;13.460;2022-07-29T09:45:28;9.63;;;7.75;;
12772;SDS011;6450;48.576;13.460;2022-07-29T09:47:56;9.27;;;7.05;;
12772;SDS011;6450;48.576;13.460;2022-07-29T09:50:34;10.23;;;7.60;;
12772;SDS011;6450;48.576;13.460;2022-07-29T09:53:12;11.18;;;7.10;;
12772;SDS011;6450;48.576;13.460;2022-07-29T09:55:56;12.45;;;7.43;;
12772;SDS011;6450;48.576;13.460;2022-07-29T09:58:23;12.50;;;8.43;;
12772;SDS011;6450;48.576;13.460;2022-07-29T10:00:51;13.25;;;7.63;;
12772;SDS011;6450;48.576;13.460;2022-07-29T10:03:20;10.32;;;8.10;;
12772;SDS011;6450;48.576;13.460;2022-07-29T10:06:03;12.13;;;8.85;;
12772;SDS011;6450;48.576;13.460;2022-07-29T10:08:36;10.77;;;8.73;;
12772;SDS011;6450;48.576;13.460;2022-07-29T10:11:10;13.27;;;9.20;;
12772;SDS011;6450;48.576;13.460;2022-07-29T10:13:39;10.48;;;8.00;;
12772;SDS011;6450;48.576;13.460;2022-07-29T10:16:07;11.18;;;8.15;;
12772;SDS011;6450;48.576;13.460;2022-07-29T10:18:36;11.52;;;8.60;;
12772;SDS011;6450;48.576;13.460;2022-07-29T10:21:04;12.38;;;9.70;;
12772;SDS011;6450;48.576;13.460;2022-07-29T10:23:32;12.27;;;7.43;;
12772;SDS011;6450;48.576;13.460;2022-07-29T10:26:03;12.65;;;8.23;;
12772;SDS011;6450;48.576;13.460;2022-07-29T10:28:30;8.90;;;7.55;;
12772;SDS011;6450;48.576;13.460;2022-07-29T10:30:59;11.57;;;7.72;;
12772;SDS011;6450;48.576;13.460;2022-07-29T10:36:22;7.15;;;6.00;;
12772;SDS011;6450;48.576;13.460;2022-07-29T10:39:00;10.73;;;5.40;;
12772;SDS011;6450;48.576;13.460;2022-07-29T10:41:51;9.35;;;5.55;;
12772;SDS011;6450;48.576;13.460;2022-07-29T10:44:28;6.50;;;5.22;;
12772;SDS011;6450;48.576;13.460;2022-07-29T10:46:55;5.47;;;4.32;;
12772;SDS011;6450;48.576;13.460;2022-07-29T10:49:23;4.25;;;3.85;;
12772;SDS011;6450;48.576;13.460;2022-07-29T10:51:56;5.95;;;3.88;;
12772;SDS011;6450;48.576;13.460;2022-07-29T10:54:36;4.25;;;3.03;;
12772;SDS011;6450;48.576;13.460;2022-07-29T10:57:13;5.13;;;3.20;;
12772;SDS011;6450;48.576;13.460;2022-07-29T10:59:41;5.53;;;3.45;;
12772;SDS011;6450;48.576;13.460;2022-07-29T11:05:13;3.35;;;2.97;;
12772;SDS011;6450;48.576;13.460;2022-07-29T11:10:45;2.50;;;2.30;;
12772;SDS011;6450;48.576;13.460;2022-07-29T11:13:13;3.25;;;2.45;;
12772;SDS011;6450;48.576;13.460;2022-07-29T11:16:22;3.70;;;2.70;;
12772;SDS011;6450;48.576;13.460;2022-07-29T11:21:45;5.60;;;3.38;;
12772;SDS011;6450;48.576;13.460;2022-07-29T11:24:15;6.82;;;2.60;;
12772;SDS011;6450;48.576;13.460;2022-07-29T11:26:46;2.58;;;2.35;;
12772;SDS011;6450;48.576;13.460;2022-07-29T11:29:34;3.10;;;2.25;;
12772;SDS011;6450;48.576;13.460;2022-07-29T11:32:11;3.60;;;2.72;;
12772;SDS011;6450;48.576;13.460;2022-07-29T11:34:40;3.88;;;2.35;;
12772;SDS011;6450;48.576;13.460;2022-07-29T11:37:13;2.88;;;2.55;;
12772;SDS011;6450;48.576;13.460;2022-07-29T11:39:46;5.63;;;2.60;;
12772;SDS011;6450;48.576;13.460;2022-07-29T11:42:43;2.83;;;2.60;;
12772;SDS011;6450;48.576;13.460;2022-07-29T11:45:20;3.78;;;2.83;;
12772;SDS011;6450;48.576;13.460;2022-07-29T11:47:54;2.97;;;2.60;;
12772;SDS011;6450;48.576;13.460;2022-07-29T11:50:30;7.63;;;3.20;;
12772;SDS011;6450;48.576;13.460;2022-07-29T11:52:59;3.97;;;2.50;;
12772;SDS011;6450;48.576;13.460;2022-07-29T11:55:27;2.60;;;2.40;;
12772;SDS011;6450;48.576;13.460;2022-07-29T11:57:56;4.57;;;3.42;;
12772;SDS011;6450;48.576;13.460;2022-07-29T12:00:30;3.75;;;2.20;;
12772;SDS011;6450;48.576;13.460;2022-07-29T12:02:59;2.70;;;2.50;;
12772;SDS011;6450;48.576;13.460;2022-07-29T12:05:39;3.90;;;3.08;;
12772;SDS011;6450;48.576;13.460;2022-07-29T12:08:08;3.72;;;3.22;;
12772;SDS011;6450;48.576;13.460;2022-07-29T12:10:37;5.55;;;3.20;;
12772;SDS011;6450;48.576;13.460;2022-07-29T12:13:05;3.45;;;2.75;;
12772;SDS011;6450;48.576;13.460;2022-07-29T12:15:33;14.20;;;5.05;;
12772;SDS011;6450;48.576;13.460;2022-07-29T12:18:09;3.80;;;3.40;;
12772;SDS011;6450;48.576;13.460;2022-07-29T12:20:37;5.40;;;3.45;;
12772;SDS011;6450;48.576;13.460;2022-07-29T12:23:05;3.42;;;2.95;;
12772;SDS011;6450;48.576;13.460;2022-07-29T12:25:34;7.68;;;3.30;;
12772;SDS011;6450;48.576;13.460;2022-07-29T12:28:03;4.90;;;2.90;;
12772;SDS011;6450;48.576;13.460;2022-07-29T12:30:39;6.10;;;3.20;;
12772;SDS011;6450;48.576;13.460;2022-07-29T12:33:13;5.28;;;2.95;;
12772;SDS011;6450;48.576;13.460;2022-07-29T12:35:42;3.20;;;2.75;;
12772;SDS011;6450;48.576;13.460;2022-07-29T12:38:10;5.05;;;2.60;;
12772;SDS011;6450;48.576;13.460;2022-07-29T12:40:39;3.65;;;3.10;;
12772;SDS011;6450;48.576;13.460;2022-07-29T12:43:07;4.75;;;3.58;;
12772;SDS011;6450;48.576;13.460;2022-07-29T12:45:35;5.93;;;3.83;;
12772;SDS011;6450;48.576;13.460;2022-07-29T12:48:05;6.82;;;4.15;;
12772;SDS011;6450;48.576;13.460;2022-07-29T12:50:34;5.00;;;4.32;;
12772;SDS011;6450;48.576;13.460;2022-07-29T12:53:08;4.18;;;3.45;;
12772;SDS011;6450;48.576;13.460;2022-07-29T12:55:40;4.78;;;4.28;;
12772;SDS011;6450;48.576;13.460;2022-07-29T12:58:09;5.45;;;2.88;;
12772;SDS011;6450;48.576;13.460;2022-07-29T13:00:36;3.60;;;3.20;;
12772;SDS011;6450;48.576;13.460;2022-07-29T13:03:04;4.57;;;3.28;;
12772;SDS011;6450;48.576;13.460;2022-07-29T13:05:41;4.13;;;2.92;;
12772;SDS011;6450;48.576;13.460;2022-07-29T13:08:10;4.05;;;3.13;;
12772;SDS011;6450;48.576;13.460;2022-07-29T13:10:38;3.22;;;2.92;;
12772;SDS011;6450;48.576;13.460;2022-07-29T13:13:06;3.60;;;3.15;;
12772;SDS011;6450;48.576;13.460;2022-07-29T13:15:35;4.40;;;3.00;;
12772;SDS011;6450;48.576;13.460;2022-07-29T13:18:05;3.30;;;3.00;;
12772;SDS011;6450;48.576;13.460;2022-07-29T13:20:52;4.10;;;2.85;;
12772;SDS011;6450;48.576;13.460;2022-07-29T13:23:19;4.28;;;2.88;;
12772;SDS011;6450;48.576;13.460;2022-07-29T13:25:46;4.30;;;3.03;;
12772;SDS011;6450;48.576;13.460;2022-07-29T13:28:13;4.03;;;3.00;;
12772;SDS011;6450;48.576;13.460;2022-07-29T13:30:41;5.05;;;2.85;;
12772;SDS011;6450;48.576;13.460;2022-07-29T13:33:10;3.50;;;2.75;;
12772;SDS011;6450;48.576;13.460;2022-07-29T13:35:37;4.25;;;3.85;;
12772;SDS011;6450;48.576;13.460;2022-07-29T13:38:04;3.63;;;3.25;;
12772;SDS011;6450;48.576;13.460;2022-07-29T13:40:31;3.38;;;2.55;;
12772;SDS011;6450;48.576;13.460;2022-07-29T13:43:00;3.55;;;3.10;;
12772;SDS011;6450;48.576;13.460;2022-07-29T13:45:27;2.80;;;2.50;;
12772;SDS011;6450;48.576;13.460;2022-07-29T13:47:54;2.80;;;2.60;;
12772;SDS011;6450;48.576;13.460;2022-07-29T13:50:22;2.85;;;2.63;;
12772;SDS011;6450;48.576;13.460;2022-07-29T13:52:49;6.28;;;2.50;;
12772;SDS011;6450;48.576;13.460;2022-07-29T13:55:16;3.90;;;2.45;;
12772;SDS011;6450;48.576;13.460;2022-07-29T13:57:43;2.58;;;2.38;;
12772;SDS011;6450;48.576;13.460;2022-07-29T14:00:11;4.32;;;2.33;;
12772;SDS011;6450;48.576;13.460;2022-07-29T14:02:40;2.85;;;2.33;;
12772;SDS011;6450;48.576;13.460;2022-07-29T14:05:07;2.95;;;2.75;;
12772;SDS011;6450;48.576;13.460;2022-07-29T14:07:37;2.88;;;2.63;;
12772;SDS011;6450;48.576;13.460;2022-07-29T14:10:05;3.28;;;2.50;;
12772;SDS011;6450;48.576;13.460;2022-07-29T14:12:32;3.28;;;2.80;;
12772;SDS011;6450;48.576;13.460;2022-07-29T14:14:59;3.28;;;2.65;;
12772;SDS011;6450;48.576;13.460;2022-07-29T14:17:26;5.47;;;2.60;;
12772;SDS011;6450;48.576;13.460;2022-07-29T14:19:53;4.55;;;3.00;;
12772;SDS011;6450;48.576;13.460;2022-07-29T14:22:20;3.90;;;2.67;;
12772;SDS011;6450;48.576;13.460;2022-07-29T14:24:49;2.45;;;2.25;;
12772;SDS011;6450;48.576;13.460;2022-07-29T14:27:17;3.88;;;2.72;;
12772;SDS011;6450;48.576;13.460;2022-07-29T14:29:44;2.63;;;2.42;;
12772;SDS011;6450;48.576;13.460;2022-07-29T14:32:11;3.08;;;2.80;;
12772;SDS011;6450;48.576;13.460;2022-07-29T14:34:39;5.00;;;2.90;;
12772;SDS011;6450;48.576;13.460;2022-07-29T14:37:06;4.32;;;2.70;;
12772;SDS011;6450;48.576;13.460;2022-07-29T14:39:34;3.28;;;2.40;;
12772;SDS011;6450;48.576;13.460;2022-07-29T14:42:03;3.42;;;3.13;;
12772;SDS011;6450;48.576;13.460;2022-07-29T14:44:32;3.60;;;3.28;;
12772;SDS011;6450;48.576;13.460;2022-07-29T14:47:00;5.25;;;3.17;;
12772;SDS011;6450;48.576;13.460;2022-07-29T14:49:27;5.18;;;3.95;;
12772;SDS011;6450;48.576;13.460;2022-07-29T14:51:54;7.45;;;4.00;;
12772;SDS011;6450;48.576;13.460;2022-07-29T14:54:21;3.75;;;3.45;;
12772;SDS011;6450;48.576;13.460;2022-07-29T14:56:48;3.50;;;3.20;;
12772;SDS011;6450;48.576;13.460;2022-07-29T14:59:21;3.78;;;3.40;;
12772;SDS011;6450;48.576;13.460;2022-07-29T15:01:48;3.83;;;3.33;;
12772;SDS011;6450;48.576;13.460;2022-07-29T15:04:15;4.43;;;4.03;;
12772;SDS011;6450;48.576;13.460;2022-07-29T15:06:42;5.13;;;4.63;;
12772;SDS011;6450;48.576;13.460;2022-07-29T15:09:09;6.57;;;5.00;;
12772;SDS011;6450;48.576;13.460;2022-07-29T15:11:36;7.07;;;6.38;;
12772;SDS011;6450;48.576;13.460;2022-07-29T15:14:03;8.77;;;5.35;;